• Join FlightAware (Why Join?)
  • Login
  • US Flag 
07:48PM EDT


 

Airport Tracker/Info


-or-


 

Live Flight TrackerFlight Track Log ✈ UAL4583 ✈ 19-Aug-2013 ✈ KEWR - KBDL

Flight Track Log - Related Links

Times and Time Zones

All times are in EDT time to prevent confusion due to time zone crossing. See the UAL4583 flight status page for this flight to view local times or setup timezone preferences in your user account.

Time Position Orientation Groundspeed Altitude Reporting Facility
EDT Latitude Longitude Course Direction KTS MPH feet Rate Location/Type
12:00PM 40.6667 -74.1833 59° Northeast 169 194 1,100  Level New York TRACON
12:01PM 40.6333 -74.2167 217° Southwest 196 226 3,400 2,220 Climbing New York TRACON
12:02PM 40.6833 -74.2000 14° North 232 267 5,600 1,320 Climbing New York TRACON
12:03PM 40.7167 -74.1167 62° Northeast 286 329 6,100 1,320 Climbing New York TRACON
12:04PM 40.7667 -74.0333 52° Northeast 290 334 8,300 1,980 Climbing New York TRACON
12:05PM 40.9227 -73.6207 59° Northeast  Level FlightAware Approximate
12:05PM 40.8000 -73.9333 66° East 316 364 10,100  Level New York TRACON
12:06PM 40.8500 -73.8167 60° Northeast 382 440 10,100  Level New York TRACON
12:07PM 40.9167 -73.6833 56° Northeast 372 428 10,100  Level New York TRACON
12:08PM 40.9667 -73.5667 60° Northeast 373 429 10,100  Level New York TRACON
12:09PM 41.0167 -73.4500 60° Northeast 366 421 10,100 -60 Level New York TRACON
12:10PM 41.1000 -73.3667 37° Northeast 360 414 10,000  Descending New York TRACON
12:11PM 41.1833 -73.3000 31° Northeast 363 418 10,100  Climbing New York TRACON
12:12PM 41.2667 -73.2333 31° Northeast 372 428 10,100 -60 Level New York TRACON
12:14PM 41.4650 -73.0744 31° Northeast 370 426 10,000 -60 Descending Boston Center
12:15PM 41.5444 -73.0114 31° Northeast 303 349 10,000 -600 Level Boston Center
12:16PM 41.6053 -72.9397 41° Northeast 284 327 8,800 -1,440 Descending Boston Center
12:17PM 41.6578 -72.8597 49° Northeast 279 321 7,100 -1,620 Descending Boston Center
12:18PM 41.7081 -72.7850 48° Northeast 261 300 5,600 -1,140 Descending Boston Center
12:19PM 41.7478 -72.7183 51° Northeast 254 292 5,000 -1,140 Descending Boston Center
12:20PM 41.7936 -72.6489 48° Northeast 253 291 3,500 -1,320 Descending Boston Center
12:21PM 41.8439 -72.6100 30° Northeast 210 242 2,400 -1,140 Descending Boston Center
12:22PM 41.8917 -72.6325 341° North 163 188 1,200 -960 Descending Boston Center
12:23PM 41.9167 -72.6689 313° West 118 136 500 -720 Descending Boston Center